Time;durP1;ratioP1;P1;durP2;ratioP2;P2;SDS_P1;SDS_P2;PMS_P1;PMS_P2;Temp;Humidity;BMP_temperature;BMP_pressure;BME280_temperature;BME280_humidity;BME280_pressure;Samples;Min_cycle;Max_cycle;Signal;HPM_P1;HPM_P2
2021/03/18 00:00:43;;;;;;;10.40;4.62;;;;;;;3.72;59.93;100448.22;1717197;82;21251;-70
2021/03/18 00:03:14;;;;;;;11.45;4.83;;;;;;;3.78;59.82;100450.89;1704148;82;21235;-72
2021/03/18 00:05:40;;;;;;;10.98;4.55;;;;;;;3.58;60.19;100456.16;1704582;82;21263;-71
2021/03/18 00:08:06;;;;;;;12.98;5.10;;;;;;;3.61;60.11;100461.66;1703228;82;25085;-71
2021/03/18 00:10:31;;;;;;;12.53;4.90;;;;;;;3.58;60.24;100450.45;1707521;82;21272;-71
2021/03/18 00:12:57;;;;;;;12.20;4.70;;;;;;;3.54;60.57;100454.23;1704153;82;20961;-71
2021/03/18 00:15:23;;;;;;;9.87;4.57;;;;;;;3.54;60.65;100445.55;1704744;82;20946;-71
2021/03/18 00:17:49;;;;;;;11.28;4.78;;;;;;;3.46;60.74;100455.19;1702203;82;21293;-70
2021/03/18 00:20:16;;;;;;;8.60;4.35;;;;;;;3.34;61.27;100458.63;1706206;82;25781;-70
2021/03/18 00:22:43;;;;;;;15.40;6.30;;;;;;;3.28;61.59;100460.33;1706821;82;21204;-72
2021/03/18 00:25:11;;;;;;;14.00;5.85;;;;;;;3.35;61.43;100462.44;1705661;82;21180;-74
2021/03/18 00:27:38;;;;;;;12.33;5.22;;;;;;;3.44;61.28;100455.78;1708686;82;21176;-71
2021/03/18 00:30:06;;;;;;;9.98;4.85;;;;;;;3.39;61.36;100463.09;1702339;82;21739;-72
2021/03/18 00:32:32;;;;;;;;;;;;;;;3.42;61.43;100452.44;1711186;82;21244;-71
2021/03/18 00:34:58;;;;;;;9.00;4.17;;;;;;;3.32;61.59;100452.67;1704474;82;21260;-71
2021/03/18 00:37:24;;;;;;;11.28;4.47;;;;;;;3.36;61.72;100452.38;1703069;82;21264;-71
2021/03/18 00:39:52;;;;;;;9.43;5.03;;;;;;;3.29;62.02;100445.88;1704321;82;21175;-71
2021/03/18 00:42:17;;;;;;;;;;;;;;;3.27;62.20;100450.85;1706464;82;21191;-71
2021/03/18 00:44:43;;;;;;;9.90;4.00;;;;;;;3.41;62.02;100452.06;1703744;82;20775;-72
2021/03/18 00:47:09;;;;;;;10.27;4.30;;;;;;;3.34;62.41;100446.87;1702055;82;21378;-72
2021/03/18 00:49:34;;;;;;;11.50;4.57;;;;;;;3.34;62.59;100446.43;1707484;82;22586;-72
2021/03/18 00:52:00;;;;;;;8.23;4.20;;;;;;;3.43;62.81;100451.48;1706847;82;21588;-72
2021/03/18 00:54:26;;;;;;;8.73;4.50;;;;;;;3.34;63.23;100450.34;1701987;82;25858;-71
2021/03/18 00:56:52;;;;;;;11.43;4.50;;;;;;;3.45;63.22;100444.41;1710711;82;36387;-72
2021/03/18 00:59:18;;;;;;;11.93;5.40;;;;;;;3.46;63.23;100446.06;1710823;82;21588;-72
2021/03/18 01:01:44;;;;;;;13.33;4.50;;;;;;;3.36;63.67;100442.41;1707513;82;21643;-72
2021/03/18 01:04:09;;;;;;;10.03;4.73;;;;;;;3.34;63.78;100444.27;1706202;82;21045;-72
2021/03/18 01:06:36;;;;;;;11.73;4.50;;;;;;;3.22;64.34;100442.84;1706120;82;28816;-72
2021/03/18 01:09:02;;;;;;;11.18;4.47;;;;;;;3.28;64.13;100443.37;1702288;82;21163;-71
2021/03/18 01:11:31;;;;;;;7.53;4.07;;;;;;;3.27;64.34;100440.41;1708602;82;21377;-72
2021/03/18 01:14:00;;;;;;;8.70;4.20;;;;;;;3.17;65.00;100439.72;1697916;82;21212;-71
2021/03/18 01:16:30;;;;;;;9.63;4.40;;;;;;;3.20;64.94;100442.57;1706946;82;21230;-71
2021/03/18 01:18:58;;;;;;;8.43;4.45;;;;;;;3.12;65.55;100436.55;1703513;82;21256;-71
2021/03/18 01:21:28;;;;;;;11.43;4.80;;;;;;;3.15;65.33;100436.83;1710443;82;21216;-70
2021/03/18 01:23:53;;;;;;;11.63;4.45;;;;;;;3.08;65.82;100442.93;1706026;82;22116;-70
2021/03/18 01:26:19;;;;;;;10.50;4.80;;;;;;;3.10;65.84;100438.44;1708262;82;24030;-71
2021/03/18 01:28:45;;;;;;;8.87;4.53;;;;;;;3.10;65.62;100431.91;1701520;82;20997;-71
2021/03/18 01:31:11;;;;;;;11.67;4.63;;;;;;;2.96;66.24;100430.69;1701286;82;26765;-71
2021/03/18 01:33:38;;;;;;;10.20;4.83;;;;;;;2.98;66.27;100431.41;1710729;82;21272;-69
2021/03/18 01:36:07;;;;;;;11.40;4.33;;;;;;;2.89;66.76;100431.56;1701250;82;21661;-70
2021/03/18 01:38:34;;;;;;;11.25;4.58;;;;;;;2.93;66.47;100430.88;1704071;82;21223;-69
2021/03/18 01:40:59;;;;;;;13.48;4.90;;;;;;;2.86;67.12;100431.28;1700643;82;21658;-69
2021/03/18 01:43:25;;;;;;;8.83;4.70;;;;;;;2.93;66.85;100429.58;1704146;82;24916;-70
2021/03/18 01:45:51;;;;;;;12.33;4.80;;;;;;;2.97;66.67;100428.45;1704327;82;21271;-70
2021/03/18 01:48:17;;;;;;;10.50;4.80;;;;;;;2.88;67.30;100430.70;1704657;82;21104;-70
2021/03/18 01:50:43;;;;;;;11.40;4.90;;;;;;;2.92;67.15;100427.89;1706403;82;20966;-70
2021/03/18 01:53:09;;;;;;;10.27;4.83;;;;;;;2.94;67.09;100429.48;1709705;82;20961;-70
2021/03/18 01:55:38;;;;;;;12.78;4.83;;;;;;;3.02;67.09;100423.77;1705482;82;21832;-70
2021/03/18 01:58:05;;;;;;;10.75;4.87;;;;;;;2.87;67.76;100426.45;1707220;82;21242;-70
2021/03/18 02:00:30;;;;;;;10.70;4.57;;;;;;;2.80;67.99;100421.73;1703110;82;21255;-70
2021/03/18 02:02:57;;;;;;;12.60;4.80;;;;;;;2.84;67.83;100425.78;1732386;82;21242;-69
2021/03/18 02:05:23;;;;;;;10.68;4.92;;;;;;;2.76;68.56;100422.37;1735522;82;21188;-70
2021/03/18 02:07:51;;;;;;;10.90;5.03;;;;;;;2.78;68.44;100432.26;1737155;81;21228;-70
2021/03/18 02:10:16;;;;;;;;;;;;;;;2.75;68.66;100427.23;1737874;82;21657;-70
2021/03/18 02:12:42;;;;;;;9.48;4.78;;;;;;;2.90;68.64;100421.95;1735649;81;21269;-70
2021/03/18 02:15:09;;;;;;;12.13;5.30;;;;;;;2.93;68.49;100424.36;1733349;82;21116;-70
2021/03/18 02:18:06;;;;;;;9.48;4.80;;;;;;;2.92;68.77;100432.67;1705643;81;21246;-71
2021/03/18 02:20:56;;;;;;;;;;;;;;;2.85;68.56;100434.81;1709534;82;21227;-70
2021/03/18 02:24:18;;;;;;;8.28;4.37;;;;;;;2.76;68.90;100423.67;1735376;81;20329;-70
2021/03/18 02:27:17;;;;;;;9.43;4.45;;;;;;;2.79;68.83;100427.39;1734558;82;21974;-70
2021/03/18 02:30:14;;;;;;;10.78;5.10;;;;;;;2.51;69.75;100443.48;1733564;82;21231;-70
2021/03/18 02:33:28;;;;;;;12.25;5.30;;;;;;;2.56;69.79;100421.52;1735316;82;21243;-70
2021/03/18 02:36:03;;;;;;;9.85;4.35;;;;;;;2.45;70.14;100430.02;1735495;82;21190;-70
2021/03/18 02:38:37;;;;;;;10.78;5.10;;;;;;;2.45;70.14;100430.02;1734599;82;21178;-70
2021/03/18 02:41:11;;;;;;;10.60;4.95;;;;;;;2.39;70.37;100429.10;1735394;82;22228;-70
2021/03/18 02:43:58;;;;;;;12.10;5.12;;;;;;;2.45;70.23;100429.54;1733133;82;21266;-70
2021/03/18 02:46:23;;;;;;;9.97;5.13;;;;;;;2.22;70.81;100431.45;1735148;82;21210;-70
2021/03/18 02:48:49;;;;;;;8.60;4.53;;;;;;;2.36;70.40;100421.00;1734300;81;21959;-71
2021/03/18 02:51:18;;;;;;;10.23;5.00;;;;;;;2.47;69.95;100421.18;1735385;81;21829;-72
2021/03/18 02:53:45;;;;;;;9.68;4.78;;;;;;;2.51;69.86;100417.42;1735346;82;21202;-70
2021/03/18 02:56:13;;;;;;;10.50;4.72;;;;;;;2.47;69.87;100421.18;1735694;82;21623;-70
2021/03/18 02:58:40;;;;;;;12.65;4.95;;;;;;;2.56;69.65;100428.86;1704631;82;21218;-70
2021/03/18 03:01:06;;;;;;;10.72;5.08;;;;;;;2.40;70.08;100431.61;1733994;81;21373;-70
2021/03/18 03:03:33;;;;;;;14.90;6.17;;;;;;;2.42;69.88;100427.13;1716234;82;24221;-70
2021/03/18 03:05:58;;;;;;;14.73;6.77;;;;;;;2.35;69.88;100429.77;1714339;82;21413;-70
2021/03/18 03:08:25;;;;;;;13.77;6.60;;;;;;;2.36;69.78;100431.90;1687484;83;20965;-70
2021/03/18 03:10:56;;;;;;;16.97;6.90;;;;;;;2.25;69.89;100421.70;1714487;83;21208;-70
2021/03/18 03:13:21;;;;;;;20.55;8.58;;;;;;;2.08;70.38;100422.75;1715071;82;21171;-69
2021/03/18 03:15:49;;;;;;;17.63;7.40;;;;;;;2.02;70.69;100424.43;1715845;83;21603;-70
2021/03/18 03:18:15;;;;;;;15.23;7.20;;;;;;;2.10;70.44;100419.57;1716798;82;21371;-70
2021/03/18 03:20:41;;;;;;;16.48;6.97;;;;;;;1.98;70.85;100419.03;1715468;83;21200;-70
2021/03/18 03:23:07;;;;;;;20.33;7.87;;;;;;;1.95;70.95;100428.33;1715458;83;21160;-70
2021/03/18 03:25:33;;;;;;;14.53;7.43;;;;;;;1.84;71.31;100429.45;1687435;83;22920;-70
2021/03/18 03:28:00;;;;;;;18.70;7.30;;;;;;;1.87;71.33;100426.66;1714564;83;21236;-70
2021/03/18 03:30:27;;;;;;;17.23;7.27;;;;;;;1.81;71.68;100431.77;1715830;82;21263;-70
2021/03/18 03:32:52;;;;;;;20.87;7.53;;;;;;;1.84;71.80;100426.38;1716946;83;21759;-70
2021/03/18 03:35:19;;;;;;;16.13;7.17;;;;;;;1.94;71.72;100427.95;1715445;83;20978;-71
2021/03/18 03:37:45;;;;;;;15.75;8.03;;;;;;;1.96;71.71;100426.11;1715710;82;21541;-71
2021/03/18 03:40:13;;;;;;;18.73;8.57;;;;;;;1.95;71.92;100428.33;1716695;82;22307;-71
2021/03/18 03:42:39;;;;;;;18.57;7.97;;;;;;;1.73;72.33;100430.93;1715937;83;21170;-70
2021/03/18 03:45:07;;;;;;;19.15;8.68;;;;;;;1.70;72.71;100428.52;1715986;82;21683;-71
2021/03/18 03:47:34;;;;;;;17.30;7.55;;;;;;;1.62;73.28;100426.84;1715895;83;21231;-71
2021/03/18 03:49:59;;;;;;;19.05;8.10;;;;;;;1.37;74.54;100436.09;1717160;83;21603;-71
2021/03/18 03:52:44;;;;;;;14.33;7.33;;;;;;;1.33;74.75;100424.19;1715699;82;21327;-71
2021/03/18 03:55:36;;;;;;;17.80;8.50;;;;;;;1.45;74.51;100425.72;1713727;83;21349;-71
2021/03/18 03:58:16;;;;;;;21.50;8.25;;;;;;;1.55;74.78;100425.52;1714880;82;21792;-71
2021/03/18 04:00:42;;;;;;;17.82;8.18;;;;;;;1.55;74.78;100425.52;1711547;83;21187;-70
2021/03/18 04:03:10;;;;;;;19.90;8.63;;;;;;;1.51;74.95;100429.22;1718765;81;21131;-70
2021/03/18 04:05:40;;;;;;;18.52;7.80;;;;;;;1.53;75.09;100429.99;1720521;81;21239;-70
2021/03/18 04:08:07;;;;;;;20.57;8.50;;;;;;;1.42;75.59;100432.75;1720627;81;21243;-71
2021/03/18 04:10:33;;;;;;;17.90;8.28;;;;;;;1.36;75.79;100439.62;1720680;81;21621;-71
2021/03/18 04:12:59;;;;;;;20.17;8.27;;;;;;;1.50;75.58;100435.38;1720450;81;21029;-71
2021/03/18 04:15:25;;;;;;;17.80;8.53;;;;;;;1.58;75.23;100430.55;1701115;82;21131;-71
2021/03/18 04:17:52;;;;;;;21.00;8.33;;;;;;;1.61;75.23;100423.86;1701493;81;21650;-70
2021/03/18 04:20:20;;;;;;;18.60;7.67;;;;;;;1.65;75.42;100427.96;1721139;81;25414;-71
2021/03/18 04:22:49;;;;;;;17.10;8.60;;;;;;;1.70;75.51;100418.09;1721922;81;22048;-71
2021/03/18 04:25:15;;;;;;;18.70;8.13;;;;;;;1.47;76.32;100427.28;1721680;81;21654;-71
2021/03/18 04:27:40;;;;;;;20.20;8.63;;;;;;;1.31;76.92;100437.76;1721589;81;21945;-71
2021/03/18 04:30:09;;;;;;;16.20;8.50;;;;;;;1.29;77.28;100433.56;1721432;81;21263;-71
2021/03/18 04:32:36;;;;;;;20.10;9.20;;;;;;;1.38;76.98;100428.67;1721193;81;21685;-71
2021/03/18 04:35:01;;;;;;;19.65;8.53;;;;;;;1.29;77.53;100437.02;1720008;81;21212;-71
2021/03/18 04:37:28;;;;;;;18.97;8.20;;;;;;;1.28;77.83;100437.94;1722492;81;21676;-71
2021/03/18 04:39:54;;;;;;;20.82;8.50;;;;;;;1.35;77.59;100436.66;1721504;81;21174;-71
2021/03/18 04:42:20;;;;;;;21.73;8.50;;;;;;;1.38;77.76;100431.28;1721093;81;21067;-71
2021/03/18 04:44:46;;;;;;;15.97;8.13;;;;;;;1.28;78.24;100435.33;1702965;82;21732;-71
2021/03/18 04:47:18;;;;;;;19.73;8.90;;;;;;;1.19;78.64;100429.36;1721486;81;21193;-72
2021/03/18 04:49:45;;;;;;;17.37;7.75;;;;;;;1.19;79.18;100435.87;1703957;81;21229;-72
2021/03/18 04:52:15;;;;;;;19.40;10.27;;;;;;;1.29;79.21;100436.16;1722273;81;21159;-72
2021/03/18 04:54:41;;;;;;;19.52;9.90;;;;;;;1.33;79.28;100425.48;1721694;81;21166;-71
2021/03/18 04:57:08;;;;;;;21.57;9.80;;;;;;;1.54;78.46;100429.04;1719002;81;21265;-70
2021/03/18 04:59:35;;;;;;;23.38;11.50;;;;;;;1.57;78.45;100428.41;1721535;81;21191;-69
2021/03/18 05:02:01;;;;;;;24.50;11.80;;;;;;;1.61;78.36;100429.06;1721145;81;21204;-70
2021/03/18 05:04:27;;;;;;;30.82;13.25;;;;;;;1.57;78.57;100424.95;1698670;81;21201;-70
2021/03/18 05:06:54;;;;;;;25.57;12.77;;;;;;;1.57;78.86;100422.35;1721226;81;21547;-71
2021/03/18 05:09:23;;;;;;;30.95;14.10;;;;;;;1.57;78.84;100418.45;1722490;81;21260;-70
2021/03/18 05:11:53;;;;;;;22.87;11.80;;;;;;;1.66;78.81;100427.01;1721327;81;21221;-71
2021/03/18 05:14:19;;;;;;;24.70;11.28;;;;;;;1.81;78.20;100424.44;1704475;81;21595;-70
2021/03/18 05:16:45;;;;;;;27.73;12.13;;;;;;;1.85;78.21;100429.80;1720854;81;21259;-70
2021/03/18 05:19:12;;;;;;;22.17;12.43;;;;;;;1.83;78.57;100430.37;1721246;81;21385;-70
2021/03/18 05:21:39;;;;;;;30.65;13.45;;;;;;;1.87;78.66;100429.27;1720878;81;21639;-70
2021/03/18 05:24:07;;;;;;;28.32;13.20;;;;;;;1.87;78.66;100429.27;1721108;81;21240;-70
2021/03/18 05:26:33;;;;;;;26.12;13.30;;;;;;;1.91;78.60;100425.53;1720844;81;21391;-70
2021/03/18 05:28:59;;;;;;;23.38;12.50;;;;;;;2.05;78.26;100420.78;1721501;81;21183;-70
2021/03/18 05:31:24;;;;;;;25.63;12.23;;;;;;;2.09;78.05;100423.09;1721874;81;21004;-69
2021/03/18 05:33:51;;;;;;;21.67;12.37;;;;;;;2.08;78.13;100429.26;1721260;81;21370;-69
2021/03/18 05:36:18;;;;;;;23.98;12.25;;;;;;;2.15;77.93;100427.10;1721878;81;21518;-70
2021/03/18 05:38:44;;;;;;;20.93;11.47;;;;;;;2.01;78.43;100435.77;1721875;81;21220;-70
2021/03/18 05:41:10;;;;;;;24.73;13.00;;;;;;;2.21;78.07;100433.71;1721464;81;24934;-70
2021/03/18 05:43:36;;;;;;;22.90;11.88;;;;;;;2.38;77.46;100434.79;1721567;81;21266;-70
2021/03/18 05:46:02;;;;;;;26.43;12.93;;;;;;;2.57;77.49;100434.45;1720899;81;21375;-70
2021/03/18 05:48:28;;;;;;;22.67;11.83;;;;;;;2.46;77.06;100439.05;1721993;81;21213;-70
2021/03/18 05:50:54;;;;;;;22.80;11.17;;;;;;;2.63;76.69;100441.06;1721671;81;21129;-70
2021/03/18 05:53:19;;;;;;;18.60;11.50;;;;;;;2.66;76.45;100441.69;1721267;81;23448;-70
2021/03/18 05:55:46;;;;;;;23.90;12.50;;;;;;;2.68;76.10;100436.38;1721541;81;20946;-70
2021/03/18 05:58:12;;;;;;;21.52;12.55;;;;;;;2.57;76.08;100431.02;1721361;81;21218;-71
2021/03/18 06:00:38;;;;;;;17.70;10.48;;;;;;;2.57;76.22;100433.63;1720972;81;21780;-71
2021/03/18 06:03:04;;;;;;;23.40;12.03;;;;;;;2.54;76.35;100439.04;1719892;81;21285;-70
2021/03/18 06:05:30;;;;;;;26.30;13.58;;;;;;;2.73;75.88;100439.52;1721129;81;21196;-69
2021/03/18 06:07:56;;;;;;;26.13;14.00;;;;;;;2.74;75.77;100438.59;1722090;81;24255;-70
2021/03/18 06:10:24;;;;;;;22.73;12.93;;;;;;;2.71;76.03;100437.96;1719514;81;22267;-70
2021/03/18 06:12:55;;;;;;;23.92;13.55;;;;;;;2.96;75.71;100434.59;1719695;81;21696;-70
2021/03/18 06:15:21;;;;;;;23.90;12.65;;;;;;;3.11;75.07;100438.81;1721406;81;21133;-69
2021/03/18 06:17:47;;;;;;;26.85;13.75;;;;;;;3.27;74.42;100443.02;1722347;81;21225;-69
2021/03/18 06:20:17;;;;;;;20.50;12.45;;;;;;;3.39;73.85;100450.03;1718135;81;21175;-70
2021/03/18 06:22:45;;;;;;;17.23;11.08;;;;;;;3.22;73.27;100448.06;1720805;81;21534;-71
2021/03/18 06:25:31;;;;;;;21.73;11.35;;;;;;;3.27;73.13;100446.94;1721305;81;21596;-70
2021/03/18 06:28:24;;;;;;;17.85;9.23;;;;;;;3.41;72.62;100443.75;1721669;81;21228;-70
2021/03/18 06:31:07;;;;;;;17.25;9.23;;;;;;;3.34;72.29;100449.48;1721340;81;21216;-70
2021/03/18 06:33:47;;;;;;;13.93;8.28;;;;;;;3.52;72.02;100453.48;1721922;81;21204;-70
2021/03/18 06:36:29;;;;;;;13.48;8.15;;;;;;;3.58;71.29;100445.23;1720512;82;22033;-70
2021/03/18 06:39:17;;;;;;;14.90;7.83;;;;;;;3.67;70.94;100451.62;1722556;81;21262;-71
2021/03/18 06:41:48;;;;;;;13.10;6.90;;;;;;;3.75;70.33;100448.48;1720135;81;21230;-70
2021/03/18 06:44:27;;;;;;;10.13;6.42;;;;;;;3.83;69.65;100451.40;1722209;81;21149;-71
2021/03/18 06:46:54;;;;;;;13.48;6.65;;;;;;;3.91;69.50;100454.31;1721109;81;21645;-71
2021/03/18 06:49:21;;;;;;;11.68;5.90;;;;;;;3.93;69.57;100451.59;1721581;81;21964;-70
2021/03/18 06:52:08;;;;;;;11.33;5.80;;;;;;;4.02;69.01;100447.52;1723351;81;21239;-71
2021/03/18 06:54:36;;;;;;;;;;;;;;;4.08;68.75;100448.40;1723498;81;21223;-71
2021/03/18 06:57:02;;;;;;;13.32;5.50;;;;;;;3.81;68.08;100450.67;1723501;81;20579;-69
2021/03/18 06:59:31;;;;;;;12.40;5.45;;;;;;;3.86;67.98;100446.45;1720848;81;21212;-71
2021/03/18 07:02:13;;;;;;;10.28;5.40;;;;;;;4.07;67.68;100445.41;1722499;81;21640;-71
2021/03/18 07:04:47;;;;;;;8.93;5.42;;;;;;;3.99;66.49;100451.65;1699323;81;21615;-73
2021/03/18 07:07:13;;;;;;;10.82;5.67;;;;;;;3.87;66.66;100443.73;1699085;82;21221;-71
2021/03/18 07:09:41;;;;;;;11.50;5.95;;;;;;;3.97;66.93;100450.45;1698596;84;21271;-71
2021/03/18 07:12:13;;;;;;;9.53;5.58;;;;;;;3.47;67.42;100452.96;1700242;82;21158;-70
2021/03/18 07:14:41;;;;;;;9.85;5.55;;;;;;;3.64;67.19;100441.86;1700620;82;22000;-71
2021/03/18 07:17:11;;;;;;;9.85;6.00;;;;;;;3.81;67.06;100448.52;1698235;83;21688;-70
2021/03/18 07:19:37;;;;;;;9.83;5.83;;;;;;;3.69;67.10;100451.52;1697050;82;21514;-71
2021/03/18 07:22:03;;;;;;;8.40;5.45;;;;;;;3.74;67.10;100450.27;1698957;82;28780;-71
2021/03/18 07:24:34;;;;;;;10.60;5.83;;;;;;;3.93;67.02;100446.37;1698682;84;21239;-72
2021/03/18 07:27:12;;;;;;;11.78;5.40;;;;;;;4.02;66.09;100447.52;1697264;84;21230;-69
2021/03/18 07:29:45;;;;;;;10.58;5.37;;;;;;;3.84;65.28;100450.47;1699165;82;21234;-70
2021/03/18 07:32:14;;;;;;;13.10;5.15;;;;;;;3.90;65.21;100446.58;1699019;84;21239;-70
2021/03/18 07:34:41;;;;;;;11.25;5.65;;;;;;;4.11;63.98;100450.80;1698875;84;21606;-69
2021/03/18 07:37:08;;;;;;;11.10;5.90;;;;;;;4.27;63.74;100447.48;1698587;82;21294;-70
2021/03/18 07:39:36;;;;;;;9.83;5.60;;;;;;;4.34;63.20;100442.66;1699651;82;21262;-71
2021/03/18 07:42:02;;;;;;;8.53;5.12;;;;;;;4.40;62.97;100454.47;1698898;84;21190;-71
2021/03/18 07:44:28;;;;;;;10.43;5.25;;;;;;;4.56;61.93;100451.10;1699185;84;21597;-71
2021/03/18 07:46:54;;;;;;;9.33;5.30;;;;;;;4.60;61.09;100448.64;1699142;82;26710;-70
2021/03/18 07:49:24;;;;;;;10.72;5.00;;;;;;;4.59;60.79;100446.13;1699617;82;25147;-72
2021/03/18 07:51:52;;;;;;;9.40;4.97;;;;;;;4.43;60.70;100445.09;1698742;82;22308;-71
2021/03/18 07:54:19;;;;;;;11.00;4.75;;;;;;;4.57;61.25;100433.17;1703553;82;21727;-72
2021/03/18 07:56:50;;;;;;;9.60;5.03;;;;;;;4.46;60.54;100438.34;1702740;82;21221;-71
2021/03/18 07:59:17;;;;;;;8.63;4.87;;;;;;;4.38;60.77;100430.19;1698096;84;21728;-72
2021/03/18 08:01:43;;;;;;;9.05;4.42;;;;;;;4.53;60.85;100442.17;1667392;84;21211;-71
2021/03/18 08:04:11;;;;;;;7.10;4.00;;;;;;;4.36;59.59;100439.93;1710661;82;21320;-71
2021/03/18 08:06:44;;;;;;;8.05;4.00;;;;;;;4.25;58.34;100438.90;1721198;81;21779;-72
2021/03/18 08:09:20;;;;;;;6.80;3.90;;;;;;;4.04;57.86;100441.70;1721138;81;21223;-71
2021/03/18 08:11:47;;;;;;;7.70;3.47;;;;;;;4.09;57.54;100440.94;1718382;81;21692;-71
2021/03/18 08:14:16;;;;;;;6.17;3.12;;;;;;;4.12;57.36;100443.33;1721895;81;21224;-72
2021/03/18 08:16:41;;;;;;;7.40;3.10;;;;;;;4.22;57.44;100435.19;1720229;81;21673;-70
2021/03/18 08:19:10;;;;;;;8.73;4.03;;;;;;;4.23;56.44;100436.87;1721223;81;26546;-70
2021/03/18 08:21:48;;;;;;;6.85;4.35;;;;;;;3.99;56.49;100438.10;1720749;81;21224;-69
2021/03/18 08:24:25;;;;;;;8.73;4.78;;;;;;;3.90;57.34;100442.66;1723970;81;21686;-70
2021/03/18 08:27:02;;;;;;;9.23;4.30;;;;;;;3.92;57.86;100435.09;1721330;81;21674;-70
2021/03/18 08:29:45;;;;;;;6.30;4.00;;;;;;;3.95;57.98;100440.59;1720892;81;21998;-70
2021/03/18 08:32:26;;;;;;;8.38;3.47;;;;;;;3.94;57.33;100442.34;1720641;81;21227;-70
2021/03/18 08:35:00;;;;;;;7.70;3.42;;;;;;;3.74;56.11;100449.41;1721390;81;21196;-70
2021/03/18 08:37:41;;;;;;;4.75;3.20;;;;;;;3.81;56.09;100436.77;1721422;81;21510;-71
2021/03/18 08:40:21;;;;;;;5.95;3.10;;;;;;;3.90;55.56;100439.59;1721609;81;21213;-72
2021/03/18 08:42:48;;;;;;;6.20;3.00;;;;;;;3.92;55.79;100444.23;1721303;81;21695;-69
2021/03/18 08:45:22;;;;;;;4.83;2.35;;;;;;;3.95;55.01;100441.89;1721169;81;21244;-70
2021/03/18 08:47:51;;;;;;;3.45;2.37;;;;;;;3.93;54.14;100444.61;1720096;83;21235;-71
2021/03/18 08:50:32;;;;;;;3.58;2.00;;;;;;;3.89;53.06;100453.59;1721064;81;21242;-71
2021/03/18 08:52:58;;;;;;;4.97;2.05;;;;;;;3.91;53.17;100446.47;1720587;81;21555;-71
2021/03/18 08:55:37;;;;;;;3.47;2.10;;;;;;;4.10;54.12;100439.97;1720568;81;21914;-72
2021/03/18 08:58:04;;;;;;;5.75;2.70;;;;;;;4.20;53.97;100443.63;1719719;83;21196;-72
2021/03/18 09:00:30;;;;;;;4.92;2.47;;;;;;;4.37;52.43;100445.53;1723166;81;21633;-72
2021/03/18 09:02:56;;;;;;;4.80;2.55;;;;;;;4.56;52.18;100447.18;1720945;81;28601;-73
2021/03/18 09:05:22;;;;;;;5.47;2.80;;;;;;;4.70;52.14;100438.34;1720956;81;25752;-71
2021/03/18 09:08:03;;;;;;;4.92;2.50;;;;;;;4.75;51.79;100438.01;1721367;81;21725;-69
2021/03/18 09:10:31;;;;;;;4.87;2.40;;;;;;;4.80;51.85;100425.41;1721120;81;21345;-72
2021/03/18 09:13:17;;;;;;;5.35;2.25;;;;;;;4.79;51.11;100427.20;1722432;81;21185;-69
2021/03/18 09:15:45;;;;;;;4.60;2.90;;;;;;;4.62;51.41;100424.50;1721382;81;21662;-68
2021/03/18 09:18:25;;;;;;;3.50;2.47;;;;;;;4.62;51.34;100424.98;1721032;81;21173;-70
2021/03/18 09:21:12;;;;;;;4.37;2.17;;;;;;;4.78;51.11;100419.47;1721392;81;22430;-70
2021/03/18 09:23:39;;;;;;;4.95;2.75;;;;;;;4.81;51.46;100420.07;1720700;81;21223;-71
2021/03/18 09:26:08;;;;;;;;;;;;;;;4.78;51.48;100424.70;1723741;81;21704;-71
2021/03/18 09:28:36;;;;;;;4.85;2.50;;;;;;;4.79;51.36;100425.90;1721088;81;20541;-72
2021/03/18 09:31:01;;;;;;;6.05;3.27;;;;;;;4.62;51.82;100425.81;1723494;81;21235;-74
2021/03/18 09:33:31;;;;;;;7.08;3.12;;;;;;;4.63;52.02;100427.49;1721580;81;21699;-72
2021/03/18 09:36:01;;;;;;;6.40;3.33;;;;;;;4.68;52.50;100426.68;1723504;81;21228;-72
2021/03/18 09:38:30;;;;;;;6.55;3.30;;;;;;;4.36;53.17;100434.70;1723131;81;21219;-76
2021/03/18 09:40:58;;;;;;;7.80;3.70;;;;;;;4.19;53.92;100427.56;1720661;81;21242;-75
2021/03/18 09:43:24;;;;;;;5.97;3.20;;;;;;;4.34;54.15;100428.75;1720885;81;21203;-71
2021/03/18 09:45:54;;;;;;;8.08;3.45;;;;;;;4.17;54.37;100424.72;1720882;81;21219;-70
2021/03/18 09:48:25;;;;;;;6.72;3.15;;;;;;;4.22;54.32;100426.04;1721379;81;21227;-70
2021/03/18 09:50:53;;;;;;;7.75;2.92;;;;;;;4.26;53.76;100427.51;1721085;81;21184;-71
2021/03/18 09:53:19;;;;;;;;;;;;;;;4.36;53.23;100424.24;1724246;81;21270;-70
2021/03/18 09:55:44;;;;;;;5.23;2.73;;;;;;;4.17;52.33;100420.31;1721408;81;27169;-70
2021/03/18 09:58:14;;;;;;;3.97;2.70;;;;;;;4.14;52.98;100417.92;1721365;81;21334;-70
2021/03/18 10:00:40;;;;;;;4.17;2.60;;;;;;;4.18;52.91;100420.69;1722045;81;21216;-70
2021/03/18 10:03:06;;;;;;;5.87;3.03;;;;;;;4.24;52.65;100422.87;1721903;81;21040;-70
2021/03/18 10:05:33;;;;;;;6.35;3.30;;;;;;;4.29;52.68;100427.29;1714033;81;29511;-70
2021/03/18 10:07:59;;;;;;;7.70;3.37;;;;;;;4.32;53.06;100422.33;1712445;82;21270;-69
2021/03/18 10:10:24;;;;;;;5.63;3.00;;;;;;;4.35;53.09;100423.42;1705654;82;21342;-69
2021/03/18 10:12:51;;;;;;;4.57;2.90;;;;;;;4.15;53.20;100415.67;1705573;82;21297;-70
2021/03/18 10:15:17;;;;;;;4.42;2.65;;;;;;;4.02;54.13;100408.32;1702561;82;21182;-70
2021/03/18 10:17:44;;;;;;;4.50;2.85;;;;;;;4.18;54.28;100414.16;1703715;82;21210;-72
2021/03/18 10:20:32;;;;;;;6.37;2.67;;;;;;;4.35;54.04;100409.48;1707656;82;21661;-71
2021/03/18 10:23:05;;;;;;;6.10;2.77;;;;;;;4.07;54.14;100408.83;1700290;82;21600;-71
2021/03/18 10:25:35;;;;;;;5.67;2.52;;;;;;;4.26;54.02;100405.28;1704748;82;21239;-71
2021/03/18 10:28:10;;;;;;;6.03;2.72;;;;;;;4.47;53.81;100400.77;1678547;82;21613;-68
2021/03/18 10:30:47;;;;;;;4.60;2.60;;;;;;;4.52;52.88;100407.80;1709650;82;21811;-71
2021/03/18 10:33:21;;;;;;;4.47;2.60;;;;;;;4.07;53.36;100404.91;1703579;82;21235;-68
2021/03/18 10:35:57;;;;;;;5.00;2.92;;;;;;;4.05;53.56;100398.96;1700239;82;21561;-69
2021/03/18 10:38:34;;;;;;;4.95;2.70;;;;;;;3.99;53.74;100400.70;1706442;82;21566;-68
2021/03/18 10:41:04;;;;;;;7.33;2.80;;;;;;;3.86;53.90;100396.33;1701483;82;21283;-68
2021/03/18 10:43:33;;;;;;;5.78;2.92;;;;;;;4.04;53.98;100395.97;1670466;83;21739;-71
2021/03/18 10:46:04;;;;;;;3.95;2.62;;;;;;;4.08;54.47;100383.06;1707099;82;21258;-71
2021/03/18 10:48:36;;;;;;;5.28;2.70;;;;;;;4.01;55.48;100393.58;1701766;82;21207;-70
2021/03/18 10:51:05;;;;;;;6.55;2.80;;;;;;;3.89;56.59;100391.38;1709828;82;22360;-69
2021/03/18 10:53:39;;;;;;;6.05;2.80;;;;;;;3.97;57.05;100389.53;1704224;82;21271;-69
2021/03/18 10:56:06;;;;;;;4.53;2.52;;;;;;;4.17;55.77;100387.64;1699897;82;21557;-69
2021/03/18 10:58:32;;;;;;;6.00;3.15;;;;;;;4.35;54.88;100378.97;1702246;82;21576;-69
2021/03/18 11:01:03;;;;;;;4.78;2.85;;;;;;;4.38;53.83;100376.59;1708170;82;21227;-70
2021/03/18 11:03:40;;;;;;;5.22;2.77;;;;;;;4.47;53.65;100379.84;1700261;82;21238;-69
2021/03/18 11:06:20;;;;;;;5.70;2.80;;;;;;;4.51;53.75;100372.16;1720815;81;21263;-69
2021/03/18 11:08:52;;;;;;;5.55;2.55;;;;;;;4.28;52.64;100388.19;1722507;81;21539;-69
2021/03/18 11:11:21;;;;;;;4.10;2.55;;;;;;;4.35;52.87;100385.95;1721458;81;22089;-69
2021/03/18 11:13:47;;;;;;;5.65;3.15;;;;;;;4.38;52.87;100380.06;1721592;81;21247;-70
2021/03/18 11:16:25;;;;;;;7.72;3.22;;;;;;;4.31;54.05;100379.64;1721739;81;21517;-69
2021/03/18 11:18:59;;;;;;;8.25;3.35;;;;;;;4.20;55.11;100375.66;1721160;81;21189;-69
2021/03/18 11:21:29;;;;;;;5.33;3.20;;;;;;;4.22;55.11;100375.55;1720638;82;21125;-69
2021/03/18 11:24:19;;;;;;;5.67;3.17;;;;;;;4.14;56.27;100381.33;1720774;81;21222;-68
2021/03/18 11:26:56;;;;;;;4.85;3.05;;;;;;;4.10;57.03;100372.87;1720634;81;21259;-69
2021/03/18 11:29:28;;;;;;;7.17;3.37;;;;;;;4.19;57.10;100366.14;1721246;81;21238;-69
2021/03/18 11:31:56;;;;;;;7.90;3.40;;;;;;;4.25;57.13;100370.93;1718840;81;22303;-69
2021/03/18 11:34:27;;;;;;;;;;;;;;;4.10;57.38;100369.41;1724235;81;21235;-69
2021/03/18 11:36:57;;;;;;;4.20;2.70;;;;;;;4.19;56.56;100364.83;1720067;83;20318;-69
2021/03/18 11:39:23;;;;;;;6.50;3.05;;;;;;;4.29;56.45;100361.94;1719591;81;21211;-71
2021/03/18 11:41:50;;;;;;;4.80;2.70;;;;;;;4.29;55.66;100364.55;1721237;81;21223;-70